sensor_id;sensor_type;location;lat;lon;timestamp;temperature;humidity
21312;DHT22;18076;52.154;10.570;2023-07-20T00:01:45;16.80;99.90
21312;DHT22;18076;52.154;10.570;2023-07-20T00:04:11;16.70;99.90
21312;DHT22;18076;52.154;10.570;2023-07-20T00:06:36;16.70;99.90
21312;DHT22;18076;52.154;10.570;2023-07-20T00:09:06;16.60;99.90
21312;DHT22;18076;52.154;10.570;2023-07-20T00:11:31;16.70;99.90
21312;DHT22;18076;52.154;10.570;2023-07-20T00:13:57;16.70;99.90
21312;DHT22;18076;52.154;10.570;2023-07-20T00:16:22;16.60;99.90
21312;DHT22;18076;52.154;10.570;2023-07-20T00:18:48;16.50;99.90
21312;DHT22;18076;52.154;10.570;2023-07-20T00:21:13;16.50;99.90
21312;DHT22;18076;52.154;10.570;2023-07-20T00:23:39;16.50;99.90
21312;DHT22;18076;52.154;10.570;2023-07-20T00:26:04;16.40;99.90
21312;DHT22;18076;52.154;10.570;2023-07-20T00:28:30;16.50;99.90
21312;DHT22;18076;52.154;10.570;2023-07-20T00:30:55;16.40;99.90
21312;DHT22;18076;52.154;10.570;2023-07-20T00:33:21;16.30;99.90
21312;DHT22;18076;52.154;10.570;2023-07-20T00:35:46;16.30;99.90
21312;DHT22;18076;52.154;10.570;2023-07-20T00:38:12;16.30;99.90
21312;DHT22;18076;52.154;10.570;2023-07-20T00:40:41;16.40;99.90
21312;DHT22;18076;52.154;10.570;2023-07-20T00:43:08;16.30;99.90
21312;DHT22;18076;52.154;10.570;2023-07-20T00:45:34;16.30;99.90
21312;DHT22;18076;52.154;10.570;2023-07-20T00:48:00;16.30;99.90
21312;DHT22;18076;52.154;10.570;2023-07-20T00:50:26;16.30;99.90
21312;DHT22;18076;52.154;10.570;2023-07-20T00:52:53;16.20;99.90
21312;DHT22;18076;52.154;10.570;2023-07-20T00:55:19;16.10;99.90
21312;DHT22;18076;52.154;10.570;2023-07-20T00:57:44;16.00;99.90
21312;DHT22;18076;52.154;10.570;2023-07-20T01:00:10;16.10;99.90
21312;DHT22;18076;52.154;10.570;2023-07-20T01:02:36;16.00;99.90
21312;DHT22;18076;52.154;10.570;2023-07-20T01:05:02;15.90;99.90
21312;DHT22;18076;52.154;10.570;2023-07-20T01:07:31;15.80;99.90
21312;DHT22;18076;52.154;10.570;2023-07-20T01:10:02;15.80;99.90
21312;DHT22;18076;52.154;10.570;2023-07-20T01:12:30;15.80;99.90
21312;DHT22;18076;52.154;10.570;2023-07-20T01:14:58;15.90;99.90
21312;DHT22;18076;52.154;10.570;2023-07-20T01:17:24;15.90;99.90
21312;DHT22;18076;52.154;10.570;2023-07-20T01:19:49;15.80;99.90
21312;DHT22;18076;52.154;10.570;2023-07-20T01:22:27;15.90;99.90
21312;DHT22;18076;52.154;10.570;2023-07-20T01:25:07;15.80;99.90
21312;DHT22;18076;52.154;10.570;2023-07-20T01:32:46;15.80;99.90
21312;DHT22;18076;52.154;10.570;2023-07-20T01:35:13;15.80;99.90
21312;DHT22;18076;52.154;10.570;2023-07-20T01:37:44;15.80;99.90
21312;DHT22;18076;52.154;10.570;2023-07-20T01:40:11;15.80;99.90
21312;DHT22;18076;52.154;10.570;2023-07-20T01:42:38;15.80;99.90
21312;DHT22;18076;52.154;10.570;2023-07-20T01:45:04;15.80;99.90
21312;DHT22;18076;52.154;10.570;2023-07-20T01:47:29;15.90;99.90
21312;DHT22;18076;52.154;10.570;2023-07-20T01:49:55;15.80;99.90
21312;DHT22;18076;52.154;10.570;2023-07-20T01:52:20;15.80;99.90
21312;DHT22;18076;52.154;10.570;2023-07-20T01:54:46;15.80;99.90
21312;DHT22;18076;52.154;10.570;2023-07-20T01:57:11;15.80;99.90
21312;DHT22;18076;52.154;10.570;2023-07-20T01:59:37;15.80;99.90
21312;DHT22;18076;52.154;10.570;2023-07-20T02:02:02;15.70;99.90
21312;DHT22;18076;52.154;10.570;2023-07-20T02:04:28;15.80;99.90
21312;DHT22;18076;52.154;10.570;2023-07-20T02:06:53;15.80;99.90
21312;DHT22;18076;52.154;10.570;2023-07-20T02:09:19;15.80;99.90
21312;DHT22;18076;52.154;10.570;2023-07-20T02:11:45;15.90;99.90
21312;DHT22;18076;52.154;10.570;2023-07-20T02:14:10;15.90;99.90
21312;DHT22;18076;52.154;10.570;2023-07-20T02:16:36;15.80;99.90
21312;DHT22;18076;52.154;10.570;2023-07-20T02:19:01;15.90;99.90
21312;DHT22;18076;52.154;10.570;2023-07-20T02:21:27;15.90;99.90
21312;DHT22;18076;52.154;10.570;2023-07-20T02:23:52;15.90;99.90
21312;DHT22;18076;52.154;10.570;2023-07-20T02:26:18;15.90;99.90
21312;DHT22;18076;52.154;10.570;2023-07-20T02:28:43;15.90;99.90
21312;DHT22;18076;52.154;10.570;2023-07-20T02:31:09;15.90;99.90
21312;DHT22;18076;52.154;10.570;2023-07-20T02:33:34;15.90;99.90
21312;DHT22;18076;52.154;10.570;2023-07-20T02:36:00;15.90;99.90
21312;DHT22;18076;52.154;10.570;2023-07-20T02:38:25;15.80;99.90
21312;DHT22;18076;52.154;10.570;2023-07-20T02:40:51;15.70;99.90
21312;DHT22;18076;52.154;10.570;2023-07-20T02:43:16;15.70;99.90
21312;DHT22;18076;52.154;10.570;2023-07-20T02:45:43;15.70;99.90
21312;DHT22;18076;52.154;10.570;2023-07-20T02:48:09;15.70;99.90
21312;DHT22;18076;52.154;10.570;2023-07-20T02:50:34;15.70;99.90
21312;DHT22;18076;52.154;10.570;2023-07-20T02:53:00;15.70;99.90
21312;DHT22;18076;52.154;10.570;2023-07-20T02:55:26;15.70;99.90
21312;DHT22;18076;52.154;10.570;2023-07-20T02:57:51;15.70;99.90
21312;DHT22;18076;52.154;10.570;2023-07-20T03:00:17;15.70;99.90
21312;DHT22;18076;52.154;10.570;2023-07-20T03:02:45;15.70;99.90
21312;DHT22;18076;52.154;10.570;2023-07-20T03:05:13;15.70;99.90
21312;DHT22;18076;52.154;10.570;2023-07-20T03:07:38;15.70;99.90
21312;DHT22;18076;52.154;10.570;2023-07-20T03:10:04;15.70;99.90
21312;DHT22;18076;52.154;10.570;2023-07-20T03:12:32;15.70;99.90
21312;DHT22;18076;52.154;10.570;2023-07-20T03:14:59;15.70;99.90
21312;DHT22;18076;52.154;10.570;2023-07-20T03:17:24;15.60;99.90
21312;DHT22;18076;52.154;10.570;2023-07-20T03:19:50;15.50;99.90
21312;DHT22;18076;52.154;10.570;2023-07-20T03:22:16;15.60;99.90
21312;DHT22;18076;52.154;10.570;2023-07-20T03:24:41;15.50;99.90
21312;DHT22;18076;52.154;10.570;2023-07-20T03:27:07;15.60;99.90
21312;DHT22;18076;52.154;10.570;2023-07-20T03:29:32;15.50;99.90
21312;DHT22;18076;52.154;10.570;2023-07-20T03:31:58;15.50;99.90
21312;DHT22;18076;52.154;10.570;2023-07-20T03:34:24;15.50;99.90
21312;DHT22;18076;52.154;10.570;2023-07-20T03:36:50;15.50;99.90
21312;DHT22;18076;52.154;10.570;2023-07-20T03:39:15;15.50;99.90
21312;DHT22;18076;52.154;10.570;2023-07-20T03:41:41;15.50;99.90
21312;DHT22;18076;52.154;10.570;2023-07-20T03:44:08;15.50;99.90
21312;DHT22;18076;52.154;10.570;2023-07-20T03:46:33;15.50;99.90
21312;DHT22;18076;52.154;10.570;2023-07-20T03:48:59;15.50;99.90
21312;DHT22;18076;52.154;10.570;2023-07-20T03:51:25;15.50;99.90
21312;DHT22;18076;52.154;10.570;2023-07-20T03:53:51;15.60;99.90
21312;DHT22;18076;52.154;10.570;2023-07-20T03:56:16;15.60;99.90
21312;DHT22;18076;52.154;10.570;2023-07-20T03:58:42;15.60;99.90
21312;DHT22;18076;52.154;10.570;2023-07-20T04:01:07;15.60;99.90
21312;DHT22;18076;52.154;10.570;2023-07-20T04:03:33;15.60;99.90
21312;DHT22;18076;52.154;10.570;2023-07-20T04:05:59;15.60;99.90
21312;DHT22;18076;52.154;10.570;2023-07-20T04:08:24;15.60;99.90
21312;DHT22;18076;52.154;10.570;2023-07-20T04:10:50;15.60;99.90
21312;DHT22;18076;52.154;10.570;2023-07-20T04:13:15;15.60;99.90
21312;DHT22;18076;52.154;10.570;2023-07-20T04:15:41;15.60;99.90
21312;DHT22;18076;52.154;10.570;2023-07-20T04:18:07;15.60;99.90
21312;DHT22;18076;52.154;10.570;2023-07-20T04:20:32;15.60;99.90
21312;DHT22;18076;52.154;10.570;2023-07-20T04:22:58;15.60;99.90
21312;DHT22;18076;52.154;10.570;2023-07-20T04:25:23;15.60;99.90
21312;DHT22;18076;52.154;10.570;2023-07-20T04:27:49;15.70;99.90
21312;DHT22;18076;52.154;10.570;2023-07-20T04:30:16;15.70;99.90
21312;DHT22;18076;52.154;10.570;2023-07-20T04:32:42;15.80;99.90
21312;DHT22;18076;52.154;10.570;2023-07-20T04:35:16;15.80;99.90
21312;DHT22;18076;52.154;10.570;2023-07-20T04:37:42;15.90;99.90
21312;DHT22;18076;52.154;10.570;2023-07-20T04:40:11;15.90;99.90
21312;DHT22;18076;52.154;10.570;2023-07-20T04:42:37;16.00;99.90
21312;DHT22;18076;52.154;10.570;2023-07-20T04:45:02;16.00;99.90
21312;DHT22;18076;52.154;10.570;2023-07-20T04:47:28;16.10;99.90
21312;DHT22;18076;52.154;10.570;2023-07-20T04:49:53;16.10;99.90
21312;DHT22;18076;52.154;10.570;2023-07-20T04:52:19;16.10;99.90
21312;DHT22;18076;52.154;10.570;2023-07-20T04:54:44;16.20;99.90
21312;DHT22;18076;52.154;10.570;2023-07-20T04:57:10;16.20;99.90
21312;DHT22;18076;52.154;10.570;2023-07-20T04:59:36;16.30;99.90
21312;DHT22;18076;52.154;10.570;2023-07-20T05:02:02;16.40;99.90
21312;DHT22;18076;52.154;10.570;2023-07-20T05:04:27;16.50;99.90
21312;DHT22;18076;52.154;10.570;2023-07-20T05:06:53;16.60;99.90
21312;DHT22;18076;52.154;10.570;2023-07-20T05:09:18;16.70;99.90
21312;DHT22;18076;52.154;10.570;2023-07-20T05:11:44;16.70;99.90
21312;DHT22;18076;52.154;10.570;2023-07-20T05:14:10;16.80;99.90
21312;DHT22;18076;52.154;10.570;2023-07-20T05:16:35;16.90;99.90
21312;DHT22;18076;52.154;10.570;2023-07-20T05:19:01;16.90;99.90
21312;DHT22;18076;52.154;10.570;2023-07-20T05:21:26;17.00;99.90
21312;DHT22;18076;52.154;10.570;2023-07-20T05:23:52;17.00;99.90
21312;DHT22;18076;52.154;10.570;2023-07-20T05:26:17;17.00;99.90
21312;DHT22;18076;52.154;10.570;2023-07-20T05:28:43;17.00;99.90
21312;DHT22;18076;52.154;10.570;2023-07-20T05:31:08;17.10;99.90
21312;DHT22;18076;52.154;10.570;2023-07-20T05:33:34;17.10;99.90
21312;DHT22;18076;52.154;10.570;2023-07-20T05:35:59;17.20;99.90
21312;DHT22;18076;52.154;10.570;2023-07-20T05:38:25;17.10;99.90
21312;DHT22;18076;52.154;10.570;2023-07-20T05:40:50;17.00;99.90
21312;DHT22;18076;52.154;10.570;2023-07-20T05:43:16;16.90;99.90
21312;DHT22;18076;52.154;10.570;2023-07-20T05:45:42;16.90;99.90
21312;DHT22;18076;52.154;10.570;2023-07-20T05:48:08;16.80;99.90
21312;DHT22;18076;52.154;10.570;2023-07-20T05:50:35;16.70;99.90
21312;DHT22;18076;52.154;10.570;2023-07-20T05:53:00;16.70;99.90
21312;DHT22;18076;52.154;10.570;2023-07-20T05:55:26;16.60;99.90
21312;DHT22;18076;52.154;10.570;2023-07-20T05:57:51;16.50;99.90
21312;DHT22;18076;52.154;10.570;2023-07-20T06:00:17;16.40;99.90
21312;DHT22;18076;52.154;10.570;2023-07-20T06:02:44;16.30;99.90
21312;DHT22;18076;52.154;10.570;2023-07-20T06:05:09;16.20;99.90
21312;DHT22;18076;52.154;10.570;2023-07-20T06:07:37;16.00;99.90
21312;DHT22;18076;52.154;10.570;2023-07-20T06:10:03;15.80;99.90
21312;DHT22;18076;52.154;10.570;2023-07-20T06:12:29;15.80;99.90
21312;DHT22;18076;52.154;10.570;2023-07-20T06:14:54;15.80;99.90
21312;DHT22;18076;52.154;10.570;2023-07-20T06:17:20;15.80;99.90
21312;DHT22;18076;52.154;10.570;2023-07-20T06:19:46;15.80;99.90
21312;DHT22;18076;52.154;10.570;2023-07-20T06:22:11;15.90;99.90
21312;DHT22;18076;52.154;10.570;2023-07-20T06:24:37;15.90;99.90
21312;DHT22;18076;52.154;10.570;2023-07-20T06:27:03;15.90;99.90
21312;DHT22;18076;52.154;10.570;2023-07-20T06:29:28;15.90;99.90
21312;DHT22;18076;52.154;10.570;2023-07-20T06:31:54;15.90;99.90
21312;DHT22;18076;52.154;10.570;2023-07-20T06:34:19;16.00;99.90
21312;DHT22;18076;52.154;10.570;2023-07-20T06:36:45;16.00;99.90
21312;DHT22;18076;52.154;10.570;2023-07-20T06:39:10;16.00;99.90
21312;DHT22;18076;52.154;10.570;2023-07-20T06:41:36;16.00;99.90
21312;DHT22;18076;52.154;10.570;2023-07-20T06:44:01;15.90;99.90
21312;DHT22;18076;52.154;10.570;2023-07-20T06:46:27;15.90;99.90
21312;DHT22;18076;52.154;10.570;2023-07-20T06:48:53;16.00;99.90
21312;DHT22;18076;52.154;10.570;2023-07-20T06:51:19;16.00;99.90
21312;DHT22;18076;52.154;10.570;2023-07-20T06:53:44;16.10;99.90
21312;DHT22;18076;52.154;10.570;2023-07-20T06:56:10;16.10;99.90
21312;DHT22;18076;52.154;10.570;2023-07-20T06:58:36;16.00;99.90
21312;DHT22;18076;52.154;10.570;2023-07-20T07:01:05;15.90;99.90
21312;DHT22;18076;52.154;10.570;2023-07-20T07:03:32;16.00;99.90
21312;DHT22;18076;52.154;10.570;2023-07-20T07:05:57;16.00;99.90
21312;DHT22;18076;52.154;10.570;2023-07-20T07:08:23;16.00;99.90
21312;DHT22;18076;52.154;10.570;2023-07-20T07:10:48;15.90;99.90
21312;DHT22;18076;52.154;10.570;2023-07-20T07:13:14;15.80;99.90
21312;DHT22;18076;52.154;10.570;2023-07-20T07:15:39;15.80;99.90
21312;DHT22;18076;52.154;10.570;2023-07-20T07:18:05;15.70;99.90
21312;DHT22;18076;52.154;10.570;2023-07-20T07:20:30;15.60;99.90
21312;DHT22;18076;52.154;10.570;2023-07-20T07:22:56;15.50;99.90
21312;DHT22;18076;52.154;10.570;2023-07-20T07:25:22;15.50;99.90
21312;DHT22;18076;52.154;10.570;2023-07-20T07:27:48;15.40;99.90
21312;DHT22;18076;52.154;10.570;2023-07-20T07:30:13;15.40;99.90
21312;DHT22;18076;52.154;10.570;2023-07-20T07:32:39;15.50;99.90
21312;DHT22;18076;52.154;10.570;2023-07-20T07:35:04;15.60;99.90
21312;DHT22;18076;52.154;10.570;2023-07-20T07:37:30;15.60;99.90
21312;DHT22;18076;52.154;10.570;2023-07-20T07:39:56;15.60;99.90
21312;DHT22;18076;52.154;10.570;2023-07-20T07:42:22;15.60;99.90
21312;DHT22;18076;52.154;10.570;2023-07-20T07:44:48;15.60;99.90
21312;DHT22;18076;52.154;10.570;2023-07-20T07:47:14;15.60;99.90
21312;DHT22;18076;52.154;10.570;2023-07-20T07:49:39;15.50;99.90
21312;DHT22;18076;52.154;10.570;2023-07-20T07:52:05;15.50;99.90
21312;DHT22;18076;52.154;10.570;2023-07-20T07:54:31;15.60;99.90
21312;DHT22;18076;52.154;10.570;2023-07-20T07:56:56;15.60;99.90
21312;DHT22;18076;52.154;10.570;2023-07-20T07:59:22;15.60;99.90
21312;DHT22;18076;52.154;10.570;2023-07-20T08:01:48;15.70;99.90
21312;DHT22;18076;52.154;10.570;2023-07-20T08:04:13;15.80;99.90
21312;DHT22;18076;52.154;10.570;2023-07-20T08:06:39;15.70;99.90
21312;DHT22;18076;52.154;10.570;2023-07-20T08:09:04;15.80;99.90
21312;DHT22;18076;52.154;10.570;2023-07-20T08:11:30;15.80;99.90
21312;DHT22;18076;52.154;10.570;2023-07-20T08:13:58;15.80;99.90
21312;DHT22;18076;52.154;10.570;2023-07-20T08:16:24;15.90;99.90
21312;DHT22;18076;52.154;10.570;2023-07-20T08:18:50;15.90;99.90
21312;DHT22;18076;52.154;10.570;2023-07-20T08:21:15;16.10;99.90
21312;DHT22;18076;52.154;10.570;2023-07-20T08:23:41;16.50;99.90
21312;DHT22;18076;52.154;10.570;2023-07-20T08:26:06;16.90;99.90
21312;DHT22;18076;52.154;10.570;2023-07-20T08:28:32;17.30;99.90
21312;DHT22;18076;52.154;10.570;2023-07-20T08:30:57;17.50;99.90
21312;DHT22;18076;52.154;10.570;2023-07-20T08:33:23;17.60;99.90
21312;DHT22;18076;52.154;10.570;2023-07-20T08:35:49;17.70;99.90
21312;DHT22;18076;52.154;10.570;2023-07-20T08:38:14;17.90;99.90
21312;DHT22;18076;52.154;10.570;2023-07-20T08:40:41;18.00;99.90
21312;DHT22;18076;52.154;10.570;2023-07-20T08:43:07;18.20;99.90
21312;DHT22;18076;52.154;10.570;2023-07-20T08:45:33;18.30;99.90
21312;DHT22;18076;52.154;10.570;2023-07-20T08:47:59;18.20;99.90
21312;DHT22;18076;52.154;10.570;2023-07-20T08:50:25;18.10;99.90
21312;DHT22;18076;52.154;10.570;2023-07-20T08:52:52;18.20;99.90
21312;DHT22;18076;52.154;10.570;2023-07-20T08:55:18;18.50;99.90
21312;DHT22;18076;52.154;10.570;2023-07-20T08:57:44;18.80;99.90
21312;DHT22;18076;52.154;10.570;2023-07-20T09:00:11;18.80;99.90
21312;DHT22;18076;52.154;10.570;2023-07-20T09:02:38;18.80;99.90
21312;DHT22;18076;52.154;10.570;2023-07-20T09:05:07;18.90;99.90
21312;DHT22;18076;52.154;10.570;2023-07-20T09:07:33;19.50;99.90
21312;DHT22;18076;52.154;10.570;2023-07-20T09:09:58;19.70;99.90
21312;DHT22;18076;52.154;10.570;2023-07-20T09:12:25;20.10;99.90
21312;DHT22;18076;52.154;10.570;2023-07-20T09:14:51;20.60;99.90
21312;DHT22;18076;52.154;10.570;2023-07-20T09:17:16;20.90;99.90
21312;DHT22;18076;52.154;10.570;2023-07-20T09:19:45;21.00;99.90
21312;DHT22;18076;52.154;10.570;2023-07-20T09:22:11;21.20;99.90
21312;DHT22;18076;52.154;10.570;2023-07-20T09:24:36;21.60;99.90
21312;DHT22;18076;52.154;10.570;2023-07-20T09:27:02;21.70;99.90
21312;DHT22;18076;52.154;10.570;2023-07-20T09:29:30;21.40;99.90
21312;DHT22;18076;52.154;10.570;2023-07-20T09:32:03;21.50;99.90
21312;DHT22;18076;52.154;10.570;2023-07-20T09:34:29;21.60;99.90
21312;DHT22;18076;52.154;10.570;2023-07-20T09:36:57;21.70;99.90
21312;DHT22;18076;52.154;10.570;2023-07-20T09:39:23;21.60;99.90
21312;DHT22;18076;52.154;10.570;2023-07-20T09:41:48;21.70;99.90
21312;DHT22;18076;52.154;10.570;2023-07-20T09:44:14;22.20;99.90
21312;DHT22;18076;52.154;10.570;2023-07-20T09:46:41;22.60;99.90
21312;DHT22;18076;52.154;10.570;2023-07-20T09:49:09;22.80;99.90
21312;DHT22;18076;52.154;10.570;2023-07-20T09:51:34;22.60;99.90
21312;DHT22;18076;52.154;10.570;2023-07-20T09:54:00;22.40;99.90
21312;DHT22;18076;52.154;10.570;2023-07-20T09:56:26;22.60;99.90
21312;DHT22;18076;52.154;10.570;2023-07-20T09:58:52;22.60;99.90
21312;DHT22;18076;52.154;10.570;2023-07-20T10:01:19;22.20;99.90
21312;DHT22;18076;52.154;10.570;2023-07-20T10:03:46;22.20;99.90
21312;DHT22;18076;52.154;10.570;2023-07-20T10:06:13;22.20;99.90
21312;DHT22;18076;52.154;10.570;2023-07-20T10:08:40;22.00;99.90
21312;DHT22;18076;52.154;10.570;2023-07-20T10:11:06;22.00;99.90
21312;DHT22;18076;52.154;10.570;2023-07-20T10:13:32;22.30;99.90
21312;DHT22;18076;52.154;10.570;2023-07-20T10:16:02;22.70;99.90
21312;DHT22;18076;52.154;10.570;2023-07-20T10:18:30;22.70;99.90
21312;DHT22;18076;52.154;10.570;2023-07-20T10:20:56;23.00;99.90
21312;DHT22;18076;52.154;10.570;2023-07-20T10:23:24;23.30;99.90
21312;DHT22;18076;52.154;10.570;2023-07-20T10:25:51;23.60;99.90
21312;DHT22;18076;52.154;10.570;2023-07-20T10:28:17;23.30;99.90
21312;DHT22;18076;52.154;10.570;2023-07-20T10:30:43;22.70;99.90
21312;DHT22;18076;52.154;10.570;2023-07-20T10:33:08;21.80;99.90
21312;DHT22;18076;52.154;10.570;2023-07-20T10:35:50;21.50;99.90
21312;DHT22;18076;52.154;10.570;2023-07-20T10:38:16;21.90;99.90
21312;DHT22;18076;52.154;10.570;2023-07-20T10:40:41;22.00;99.90
21312;DHT22;18076;52.154;10.570;2023-07-20T10:43:07;21.90;99.90
21312;DHT22;18076;52.154;10.570;2023-07-20T10:45:37;21.70;99.90
21312;DHT22;18076;52.154;10.570;2023-07-20T10:48:05;21.60;99.90
21312;DHT22;18076;52.154;10.570;2023-07-20T10:50:35;22.10;99.90
21312;DHT22;18076;52.154;10.570;2023-07-20T10:53:19;22.70;99.90
21312;DHT22;18076;52.154;10.570;2023-07-20T10:55:45;23.40;99.90
21312;DHT22;18076;52.154;10.570;2023-07-20T10:58:12;23.80;99.90
21312;DHT22;18076;52.154;10.570;2023-07-20T11:01:01;23.40;99.90
21312;DHT22;18076;52.154;10.570;2023-07-20T11:03:27;22.60;99.90
21312;DHT22;18076;52.154;10.570;2023-07-20T11:05:53;22.30;99.90
21312;DHT22;18076;52.154;10.570;2023-07-20T11:08:37;22.50;99.90
21312;DHT22;18076;52.154;10.570;2023-07-20T11:13:58;23.20;99.90
21312;DHT22;18076;52.154;10.570;2023-07-20T11:18:58;22.80;99.90
21312;DHT22;18076;52.154;10.570;2023-07-20T11:21:24;22.80;99.90
21312;DHT22;18076;52.154;10.570;2023-07-20T11:23:50;22.70;99.90
21312;DHT22;18076;52.154;10.570;2023-07-20T11:26:17;22.50;99.90
21312;DHT22;18076;52.154;10.570;2023-07-20T11:28:43;22.10;99.90
21312;DHT22;18076;52.154;10.570;2023-07-20T11:31:08;22.00;99.90
21312;DHT22;18076;52.154;10.570;2023-07-20T11:33:34;21.80;99.90
21312;DHT22;18076;52.154;10.570;2023-07-20T11:36:00;21.70;99.90
21312;DHT22;18076;52.154;10.570;2023-07-20T11:38:25;22.10;99.90
21312;DHT22;18076;52.154;10.570;2023-07-20T11:40:51;22.60;99.90
21312;DHT22;18076;52.154;10.570;2023-07-20T11:43:16;23.20;99.90
21312;DHT22;18076;52.154;10.570;2023-07-20T11:45:43;23.70;99.90
21312;DHT22;18076;52.154;10.570;2023-07-20T11:48:14;24.00;99.90
21312;DHT22;18076;52.154;10.570;2023-07-20T11:50:39;23.60;99.90
21312;DHT22;18076;52.154;10.570;2023-07-20T11:53:05;23.10;99.90
21312;DHT22;18076;52.154;10.570;2023-07-20T11:55:31;23.10;99.90
21312;DHT22;18076;52.154;10.570;2023-07-20T11:58:04;23.30;99.90
21312;DHT22;18076;52.154;10.570;2023-07-20T12:00:30;23.60;99.90
21312;DHT22;18076;52.154;10.570;2023-07-20T12:02:56;24.00;99.90
21312;DHT22;18076;52.154;10.570;2023-07-20T12:05:22;24.20;99.90
21312;DHT22;18076;52.154;10.570;2023-07-20T12:07:48;23.90;99.80
21312;DHT22;18076;52.154;10.570;2023-07-20T12:10:16;23.70;99.60
21312;DHT22;18076;52.154;10.570;2023-07-20T12:12:42;24.00;99.90
21312;DHT22;18076;52.154;10.570;2023-07-20T12:15:15;24.40;99.90
21312;DHT22;18076;52.154;10.570;2023-07-20T12:17:44;24.60;99.00
21312;DHT22;18076;52.154;10.570;2023-07-20T12:20:10;24.20;97.80
21312;DHT22;18076;52.154;10.570;2023-07-20T12:22:39;24.40;98.70
21312;DHT22;18076;52.154;10.570;2023-07-20T12:25:06;24.50;99.20
21312;DHT22;18076;52.154;10.570;2023-07-20T12:27:32;25.00;99.90
21312;DHT22;18076;52.154;10.570;2023-07-20T12:29:57;25.40;97.70
21312;DHT22;18076;52.154;10.570;2023-07-20T12:32:23;25.20;96.90
21312;DHT22;18076;52.154;10.570;2023-07-20T12:34:49;25.40;96.70
21312;DHT22;18076;52.154;10.570;2023-07-20T12:37:17;25.40;95.30
21312;DHT22;18076;52.154;10.570;2023-07-20T12:39:43;25.10;95.20
21312;DHT22;18076;52.154;10.570;2023-07-20T12:42:12;25.10;94.10
21312;DHT22;18076;52.154;10.570;2023-07-20T12:44:37;24.90;94.70
21312;DHT22;18076;52.154;10.570;2023-07-20T12:47:03;24.70;94.10
21312;DHT22;18076;52.154;10.570;2023-07-20T12:49:29;24.70;96.30
21312;DHT22;18076;52.154;10.570;2023-07-20T12:51:54;25.00;95.70
21312;DHT22;18076;52.154;10.570;2023-07-20T12:54:20;25.10;95.40
21312;DHT22;18076;52.154;10.570;2023-07-20T12:56:46;25.30;94.30
21312;DHT22;18076;52.154;10.570;2023-07-20T12:59:11;25.40;94.30
21312;DHT22;18076;52.154;10.570;2023-07-20T13:01:37;25.50;94.20
21312;DHT22;18076;52.154;10.570;2023-07-20T13:04:03;25.60;93.90
21312;DHT22;18076;52.154;10.570;2023-07-20T13:06:29;25.40;94.00
21312;DHT22;18076;52.154;10.570;2023-07-20T13:08:54;25.50;94.00
21312;DHT22;18076;52.154;10.570;2023-07-20T13:11:21;25.60;94.00
21312;DHT22;18076;52.154;10.570;2023-07-20T13:13:47;25.70;93.80
21312;DHT22;18076;52.154;10.570;2023-07-20T13:16:13;25.40;93.20
21312;DHT22;18076;52.154;10.570;2023-07-20T13:18:40;25.40;94.20
21312;DHT22;18076;52.154;10.570;2023-07-20T13:21:05;25.00;92.90
21312;DHT22;18076;52.154;10.570;2023-07-20T13:23:36;24.50;93.40
21312;DHT22;18076;52.154;10.570;2023-07-20T13:26:02;24.60;93.60
21312;DHT22;18076;52.154;10.570;2023-07-20T13:28:28;24.70;92.90
21312;DHT22;18076;52.154;10.570;2023-07-20T13:30:54;24.90;93.90
21312;DHT22;18076;52.154;10.570;2023-07-20T13:33:20;25.10;92.80
21312;DHT22;18076;52.154;10.570;2023-07-20T13:35:45;24.90;92.20
21312;DHT22;18076;52.154;10.570;2023-07-20T13:38:12;24.80;92.80
21312;DHT22;18076;52.154;10.570;2023-07-20T13:40:37;25.00;92.90
21312;DHT22;18076;52.154;10.570;2023-07-20T13:43:03;25.00;91.50
21312;DHT22;18076;52.154;10.570;2023-07-20T13:45:28;25.00;92.10
21312;DHT22;18076;52.154;10.570;2023-07-20T13:47:54;25.00;91.60
21312;DHT22;18076;52.154;10.570;2023-07-20T13:50:20;25.30;92.20
21312;DHT22;18076;52.154;10.570;2023-07-20T13:52:46;25.00;91.90
21312;DHT22;18076;52.154;10.570;2023-07-20T13:55:12;24.60;92.20
21312;DHT22;18076;52.154;10.570;2023-07-20T13:57:37;24.70;93.50
21312;DHT22;18076;52.154;10.570;2023-07-20T14:00:04;24.70;93.20
21312;DHT22;18076;52.154;10.570;2023-07-20T14:02:30;24.90;93.90
21312;DHT22;18076;52.154;10.570;2023-07-20T14:04:56;25.40;94.50
21312;DHT22;18076;52.154;10.570;2023-07-20T14:07:22;25.30;93.40
21312;DHT22;18076;52.154;10.570;2023-07-20T14:09:47;25.00;92.50
21312;DHT22;18076;52.154;10.570;2023-07-20T14:12:13;24.70;93.20
21312;DHT22;18076;52.154;10.570;2023-07-20T14:14:40;24.60;93.20
21312;DHT22;18076;52.154;10.570;2023-07-20T14:17:07;24.30;93.50
21312;DHT22;18076;52.154;10.570;2023-07-20T14:19:33;24.00;93.80
21312;DHT22;18076;52.154;10.570;2023-07-20T14:21:58;24.10;93.50
21312;DHT22;18076;52.154;10.570;2023-07-20T14:24:25;24.00;93.10
21312;DHT22;18076;52.154;10.570;2023-07-20T14:26:52;23.70;93.50
21312;DHT22;18076;52.154;10.570;2023-07-20T14:29:20;23.60;94.30
21312;DHT22;18076;52.154;10.570;2023-07-20T14:31:45;23.30;93.50
21312;DHT22;18076;52.154;10.570;2023-07-20T14:34:16;23.20;93.50
21312;DHT22;18076;52.154;10.570;2023-07-20T14:36:42;23.30;93.10
21312;DHT22;18076;52.154;10.570;2023-07-20T14:39:07;23.20;92.90
21312;DHT22;18076;52.154;10.570;2023-07-20T14:41:33;23.10;94.00
21312;DHT22;18076;52.154;10.570;2023-07-20T14:43:58;22.90;93.20
21312;DHT22;18076;52.154;10.570;2023-07-20T14:46:24;22.90;93.40
21312;DHT22;18076;52.154;10.570;2023-07-20T14:48:50;22.80;93.70
21312;DHT22;18076;52.154;10.570;2023-07-20T14:51:17;22.70;93.90
21312;DHT22;18076;52.154;10.570;2023-07-20T14:53:42;22.60;94.00
21312;DHT22;18076;52.154;10.570;2023-07-20T14:56:08;22.70;94.80
21312;DHT22;18076;52.154;10.570;2023-07-20T14:58:34;22.60;94.30
21312;DHT22;18076;52.154;10.570;2023-07-20T15:01:00;22.50;94.10
21312;DHT22;18076;52.154;10.570;2023-07-20T15:03:26;22.40;94.30
21312;DHT22;18076;52.154;10.570;2023-07-20T15:05:52;22.30;94.10
21312;DHT22;18076;52.154;10.570;2023-07-20T15:08:17;22.40;94.10
21312;DHT22;18076;52.154;10.570;2023-07-20T15:10:44;22.30;93.70
21312;DHT22;18076;52.154;10.570;2023-07-20T15:13:12;22.20;93.70
21312;DHT22;18076;52.154;10.570;2023-07-20T15:15:38;22.10;94.00
21312;DHT22;18076;52.154;10.570;2023-07-20T15:18:04;22.00;93.40
21312;DHT22;18076;52.154;10.570;2023-07-20T15:20:29;21.80;93.40